sensor_id;sensor_type;location;lat;lon;timestamp;pressure;altitude;pressure_sealevel;temperature;humidity
51123;BME280;37162;41.724;13.346;2023-03-14T00:00:21;96723.41;;;17.29;64.75
51123;BME280;37162;41.724;13.346;2023-03-14T00:02:52;96719.91;;;17.28;64.84
51123;BME280;37162;41.724;13.346;2023-03-14T00:17:36;96711.75;;;17.23;65.16
51123;BME280;37162;41.724;13.346;2023-03-14T00:20:03;96711.75;;;17.23;65.01
51123;BME280;37162;41.724;13.346;2023-03-14T00:22:30;96714.88;;;17.20;64.84
51123;BME280;37162;41.724;13.346;2023-03-14T00:24:56;96720.84;;;17.22;64.89
51123;BME280;37162;41.724;13.346;2023-03-14T00:27:22;96728.91;;;17.22;65.01
51123;BME280;37162;41.724;13.346;2023-03-14T00:29:47;96715.47;;;17.22;65.09
51123;BME280;37162;41.724;13.346;2023-03-14T00:32:13;96707.44;;;17.22;65.07
51123;BME280;37162;41.724;13.346;2023-03-14T00:34:38;96702.06;;;17.22;64.88
51123;BME280;37162;41.724;13.346;2023-03-14T00:37:05;96691.31;;;17.22;65.12
51123;BME280;37162;41.724;13.346;2023-03-14T00:39:30;96688.03;;;17.20;64.96
51123;BME280;37162;41.724;13.346;2023-03-14T00:41:57;96688.38;;;17.24;65.06
51123;BME280;37162;41.724;13.346;2023-03-14T00:44:22;96692.13;;;17.23;64.86
51123;BME280;37162;41.724;13.346;2023-03-14T00:46:47;96695.63;;;17.23;64.88
51123;BME280;37162;41.724;13.346;2023-03-14T00:49:13;96687.56;;;17.23;64.69
51123;BME280;37162;41.724;13.346;2023-03-14T00:51:38;96692.94;;;17.23;64.79
51123;BME280;37162;41.724;13.346;2023-03-14T00:54:04;96677.66;;;17.24;64.67
51123;BME280;37162;41.724;13.346;2023-03-14T00:56:30;96674.16;;;17.23;64.69
51123;BME280;37162;41.724;13.346;2023-03-14T00:58:56;96666.09;;;17.23;64.67
51123;BME280;37162;41.724;13.346;2023-03-14T01:01:21;96674.16;;;17.23;64.92
51123;BME280;37162;41.724;13.346;2023-03-14T01:03:51;96676.84;;;17.23;64.63
51123;BME280;37162;41.724;13.346;2023-03-14T01:06:19;96670.66;;;17.23;64.59
51123;BME280;37162;41.724;13.346;2023-03-14T01:08:46;96677.88;;;17.22;64.58
51123;BME280;37162;41.724;13.346;2023-03-14T01:11:15;96669.00;;;17.22;64.37
51123;BME280;37162;41.724;13.346;2023-03-14T01:13:42;96662.59;;;17.23;64.60
51123;BME280;37162;41.724;13.346;2023-03-14T01:16:09;96672.53;;;17.22;64.63
51123;BME280;37162;41.724;13.346;2023-03-14T01:18:36;96665.28;;;17.23;64.66
51123;BME280;37162;41.724;13.346;2023-03-14T01:21:04;96662.59;;;17.23;64.87
51123;BME280;37162;41.724;13.346;2023-03-14T01:23:34;96662.34;;;17.24;65.09
51123;BME280;37162;41.724;13.346;2023-03-14T01:25:59;96656.41;;;17.22;65.27
51123;BME280;37162;41.724;13.346;2023-03-14T01:28:25;96658.03;;;17.23;65.35
51123;BME280;37162;41.724;13.346;2023-03-14T01:30:51;96652.66;;;17.23;65.61
51123;BME280;37162;41.724;13.346;2023-03-14T01:33:16;96646.50;;;17.23;65.38
51123;BME280;37162;41.724;13.346;2023-03-14T01:35:42;96643.81;;;17.23;65.36
51123;BME280;37162;41.724;13.346;2023-03-14T01:38:07;96627.91;;;17.21;65.03
51123;BME280;37162;41.724;13.346;2023-03-14T01:40:32;96627.91;;;17.21;65.04
51123;BME280;37162;41.724;13.346;2023-03-14T01:43:06;96616.34;;;17.21;64.87
51123;BME280;37162;41.724;13.346;2023-03-14T01:51:06;96580.09;;;17.18;64.59
51123;BME280;37162;41.724;13.346;2023-03-14T01:53:34;96563.88;;;17.13;64.66
51123;BME280;37162;41.724;13.346;2023-03-14T01:56:00;96575.28;;;17.20;64.72
51123;BME280;37162;41.724;13.346;2023-03-14T01:58:28;96563.72;;;17.20;64.58
51123;BME280;37162;41.724;13.346;2023-03-14T02:00:57;96565.59;;;17.19;64.39
51123;BME280;37162;41.724;13.346;2023-03-14T02:03:24;96560.47;;;17.18;64.16
51123;BME280;37162;41.724;13.346;2023-03-14T02:05:53;96558.59;;;17.18;64.59
51123;BME280;37162;41.724;13.346;2023-03-14T02:08:22;96550.47;;;17.13;64.33
51123;BME280;37162;41.724;13.346;2023-03-14T02:10:50;96559.41;;;17.19;64.38
51123;BME280;37162;41.724;13.346;2023-03-14T02:13:19;96559.41;;;17.19;64.36
51123;BME280;37162;41.724;13.346;2023-03-14T02:15:46;96560.22;;;17.19;64.40
51123;BME280;37162;41.724;13.346;2023-03-14T02:18:13;96543.22;;;17.14;64.49
51123;BME280;37162;41.724;13.346;2023-03-14T02:20:48;96546.81;;;17.19;64.73
51123;BME280;37162;41.724;13.346;2023-03-14T02:23:27;96548.69;;;17.19;64.47
51123;BME280;37162;41.724;13.346;2023-03-14T02:26:08;96543.31;;;17.19;64.47
51123;BME280;37162;41.724;13.346;2023-03-14T02:28:34;96539.56;;;17.20;64.65
51123;BME280;37162;41.724;13.346;2023-03-14T02:30:59;96537.13;;;17.18;64.64
51123;BME280;37162;41.724;13.346;2023-03-14T02:33:26;96542.50;;;17.18;64.57
51123;BME280;37162;41.724;13.346;2023-03-14T02:36:00;96531.97;;;17.17;64.55
51123;BME280;37162;41.724;13.346;2023-03-14T02:38:54;96523.94;;;17.17;64.31
51123;BME280;37162;41.724;13.346;2023-03-14T02:41:21;96518.47;;;17.11;64.45
51123;BME280;37162;41.724;13.346;2023-03-14T02:43:46;96525.00;;;17.16;64.33
51123;BME280;37162;41.724;13.346;2023-03-14T02:46:15;96524.19;;;17.15;64.41
51123;BME280;37162;41.724;13.346;2023-03-14T02:48:53;96521.50;;;17.15;64.41
51123;BME280;37162;41.724;13.346;2023-03-14T02:51:20;96513.09;;;17.11;64.62
51123;BME280;37162;41.724;13.346;2023-03-14T02:53:46;96514.75;;;17.13;64.63
51123;BME280;37162;41.724;13.346;2023-03-14T02:59:17;96501.22;;;17.07;64.53
51123;BME280;37162;41.724;13.346;2023-03-14T03:01:43;96504.72;;;17.08;64.48
51123;BME280;37162;41.724;13.346;2023-03-14T03:04:08;96508.22;;;17.08;64.76
51123;BME280;37162;41.724;13.346;2023-03-14T03:06:33;96509.59;;;17.11;64.99
51123;BME280;37162;41.724;13.346;2023-03-14T03:09:00;96511.47;;;17.10;64.86
51123;BME280;37162;41.724;13.346;2023-03-14T03:11:26;96505.28;;;17.10;64.93
51123;BME280;37162;41.724;13.346;2023-03-14T03:13:51;96503.41;;;17.10;65.12
51123;BME280;37162;41.724;13.346;2023-03-14T03:16:17;96505.28;;;17.10;65.05
51123;BME280;37162;41.724;13.346;2023-03-14T03:18:42;96509.59;;;17.11;65.06
51123;BME280;37162;41.724;13.346;2023-03-14T03:21:08;96499.59;;;17.06;65.03
51123;BME280;37162;41.724;13.346;2023-03-14T03:23:34;96500.50;;;17.12;65.17
51123;BME280;37162;41.724;13.346;2023-03-14T03:26:00;96486.84;;;17.14;65.31
51123;BME280;37162;41.724;13.346;2023-03-14T03:28:25;96487.91;;;17.13;65.14
51123;BME280;37162;41.724;13.346;2023-03-14T03:30:51;96483.34;;;17.13;65.37
51123;BME280;37162;41.724;13.346;2023-03-14T03:33:16;96479.84;;;17.13;65.27
51123;BME280;37162;41.724;13.346;2023-03-14T03:35:48;96477.16;;;17.13;65.04
51123;BME280;37162;41.724;13.346;2023-03-14T03:38:14;96469.13;;;17.13;64.87
51123;BME280;37162;41.724;13.346;2023-03-14T03:40:39;96469.13;;;17.13;64.83
51123;BME280;37162;41.724;13.346;2023-03-14T03:43:05;96468.28;;;17.12;64.65
51123;BME280;37162;41.724;13.346;2023-03-14T03:45:30;96461.06;;;17.13;64.72
51123;BME280;37162;41.724;13.346;2023-03-14T03:47:56;96466.09;;;17.09;64.77
51123;BME280;37162;41.724;13.346;2023-03-14T03:50:21;96455.34;;;17.09;64.85
51123;BME280;37162;41.724;13.346;2023-03-14T03:52:47;96457.53;;;17.12;65.02
51123;BME280;37162;41.724;13.346;2023-03-14T03:55:12;96439.81;;;17.11;64.51
51123;BME280;37162;41.724;13.346;2023-03-14T03:57:37;96438.75;;;17.12;64.72
51123;BME280;37162;41.724;13.346;2023-03-14T04:00:04;96433.38;;;17.12;64.46
51123;BME280;37162;41.724;13.346;2023-03-14T04:02:31;96425.31;;;17.12;64.45
51123;BME280;37162;41.724;13.346;2023-03-14T04:04:56;96406.47;;;17.07;64.76
51123;BME280;37162;41.724;13.346;2023-03-14T04:07:21;96407.59;;;17.11;64.52
51123;BME280;37162;41.724;13.346;2023-03-14T04:09:47;96404.09;;;17.10;64.58
51123;BME280;37162;41.724;13.346;2023-03-14T04:12:12;96407.59;;;17.11;64.59
51123;BME280;37162;41.724;13.346;2023-03-14T04:14:38;96403.03;;;17.11;64.77
51123;BME280;37162;41.724;13.346;2023-03-14T04:17:03;96407.59;;;17.11;64.67
51123;BME280;37162;41.724;13.346;2023-03-14T04:19:29;96407.38;;;17.13;65.01
51123;BME280;37162;41.724;13.346;2023-03-14T04:21:54;96399.34;;;17.13;65.35
51123;BME280;37162;41.724;13.346;2023-03-14T04:24:20;96400.13;;;17.13;65.47
51123;BME280;37162;41.724;13.346;2023-03-14T04:26:45;96399.34;;;17.13;65.36
51123;BME280;37162;41.724;13.346;2023-03-14T04:29:11;96402.00;;;17.13;65.32
51123;BME280;37162;41.724;13.346;2023-03-14T04:31:36;96398.50;;;17.12;65.00
51123;BME280;37162;41.724;13.346;2023-03-14T04:34:01;96396.31;;;17.09;64.99
51123;BME280;37162;41.724;13.346;2023-03-14T04:36:27;96397.69;;;17.11;64.69
51123;BME280;37162;41.724;13.346;2023-03-14T04:38:52;96401.44;;;17.10;64.82
51123;BME280;37162;41.724;13.346;2023-03-14T04:41:18;96406.53;;;17.12;64.83
51123;BME280;37162;41.724;13.346;2023-03-14T04:43:43;96395.81;;;17.12;64.88
51123;BME280;37162;41.724;13.346;2023-03-14T04:46:08;96386.94;;;17.11;64.56
51123;BME280;37162;41.724;13.346;2023-03-14T04:48:34;96386.13;;;17.11;64.45
51123;BME280;37162;41.724;13.346;2023-03-14T04:50:59;96379.13;;;17.10;64.78
51123;BME280;37162;41.724;13.346;2023-03-14T04:53:25;96380.75;;;17.11;64.65
51123;BME280;37162;41.724;13.346;2023-03-14T04:55:51;96384.50;;;17.10;64.57
51123;BME280;37162;41.724;13.346;2023-03-14T04:58:18;96379.13;;;17.10;64.66
51123;BME280;37162;41.724;13.346;2023-03-14T05:00:43;96364.50;;;17.01;64.75
51123;BME280;37162;41.724;13.346;2023-03-14T05:03:09;96376.72;;;17.08;64.68
51123;BME280;37162;41.724;13.346;2023-03-14T05:05:34;96379.41;;;17.08;64.68
51123;BME280;37162;41.724;13.346;2023-03-14T05:08:00;96374.25;;;17.07;64.96
51123;BME280;37162;41.724;13.346;2023-03-14T05:10:25;96384.97;;;17.07;64.95
51123;BME280;37162;41.724;13.346;2023-03-14T05:12:51;96373.44;;;17.06;64.97
51123;BME280;37162;41.724;13.346;2023-03-14T05:15:16;96364.31;;;17.07;64.91
51123;BME280;37162;41.724;13.346;2023-03-14T05:17:41;96374.25;;;17.07;64.95
51123;BME280;37162;41.724;13.346;2023-03-14T05:20:08;96360.81;;;17.07;65.16
51123;BME280;37162;41.724;13.346;2023-03-14T05:22:38;96367.00;;;17.07;65.04
51123;BME280;37162;41.724;13.346;2023-03-14T05:25:04;96359.78;;;17.08;64.91
51123;BME280;37162;41.724;13.346;2023-03-14T05:27:30;96350.59;;;17.04;64.68
51123;BME280;37162;41.724;13.346;2023-03-14T05:29:55;96356.28;;;17.07;64.66
51123;BME280;37162;41.724;13.346;2023-03-14T05:32:21;96355.25;;;17.08;65.42
51123;BME280;37162;41.724;13.346;2023-03-14T05:34:46;96348.81;;;17.09;66.03
51123;BME280;37162;41.724;13.346;2023-03-14T05:37:11;96334.25;;;17.05;65.96
51123;BME280;37162;41.724;13.346;2023-03-14T05:39:37;96332.13;;;17.07;65.89
51123;BME280;37162;41.724;13.346;2023-03-14T05:42:02;96336.69;;;17.07;65.80
51123;BME280;37162;41.724;13.346;2023-03-14T05:44:28;96335.88;;;17.06;65.29
51123;BME280;37162;41.724;13.346;2023-03-14T05:46:53;96332.13;;;17.07;64.99
51123;BME280;37162;41.724;13.346;2023-03-14T05:49:19;96325.13;;;17.06;64.92
51123;BME280;37162;41.724;13.346;2023-03-14T05:51:44;96327.81;;;17.06;64.60
51123;BME280;37162;41.724;13.346;2023-03-14T05:54:09;96325.13;;;17.06;64.88
51123;BME280;37162;41.724;13.346;2023-03-14T05:56:35;96309.84;;;17.07;64.92
51123;BME280;37162;41.724;13.346;2023-03-14T05:59:00;96320.28;;;17.03;64.91
51123;BME280;37162;41.724;13.346;2023-03-14T06:01:29;96322.22;;;17.08;64.64
51123;BME280;37162;41.724;13.346;2023-03-14T06:03:55;96334.25;;;17.05;64.64
51123;BME280;37162;41.724;13.346;2023-03-14T06:06:20;96328.63;;;17.07;64.74
51123;BME280;37162;41.724;13.346;2023-03-14T06:08:46;96346.59;;;17.06;64.66
51123;BME280;37162;41.724;13.346;2023-03-14T06:11:11;96350.91;;;17.07;64.47
51123;BME280;37162;41.724;13.346;2023-03-14T06:13:37;96349.06;;;17.08;64.67
51123;BME280;37162;41.724;13.346;2023-03-14T06:16:02;96337.25;;;17.09;64.78
51123;BME280;37162;41.724;13.346;2023-03-14T06:18:28;96337.25;;;17.09;64.54
51123;BME280;37162;41.724;13.346;2023-03-14T06:20:54;96342.38;;;17.10;64.66
51123;BME280;37162;41.724;13.346;2023-03-14T06:23:21;96346.13;;;17.09;64.58
51123;BME280;37162;41.724;13.346;2023-03-14T06:25:46;96340.75;;;17.09;64.50
51123;BME280;37162;41.724;13.346;2023-03-14T06:28:12;96349.38;;;17.11;64.33
51123;BME280;37162;41.724;13.346;2023-03-14T06:30:37;96349.38;;;17.11;64.38
51123;BME280;37162;41.724;13.346;2023-03-14T06:33:03;96341.31;;;17.11;64.29
51123;BME280;37162;41.724;13.346;2023-03-14T06:35:28;96342.97;;;17.13;64.42
51123;BME280;37162;41.724;13.346;2023-03-14T06:37:54;96346.47;;;17.13;64.31
51123;BME280;37162;41.724;13.346;2023-03-14T06:40:19;96336.94;;;17.05;64.48
51123;BME280;37162;41.724;13.346;2023-03-14T06:42:45;96337.19;;;17.04;64.24
51123;BME280;37162;41.724;13.346;2023-03-14T06:45:10;96352.84;;;17.12;64.04
51123;BME280;37162;41.724;13.346;2023-03-14T06:47:36;96352.38;;;17.15;64.32
51123;BME280;37162;41.724;13.346;2023-03-14T06:50:04;96349.69;;;17.15;64.40
51123;BME280;37162;41.724;13.346;2023-03-14T06:52:29;96343.25;;;17.16;64.02
51123;BME280;37162;41.724;13.346;2023-03-14T06:54:55;96330.66;;;17.17;64.16
51123;BME280;37162;41.724;13.346;2023-03-14T06:57:20;96325.88;;;17.19;64.02
51123;BME280;37162;41.724;13.346;2023-03-14T06:59:45;96324.00;;;17.19;64.07
51123;BME280;37162;41.724;13.346;2023-03-14T07:02:12;96323.66;;;17.16;64.11
51123;BME280;37162;41.724;13.346;2023-03-14T07:04:38;96326.44;;;17.21;63.79
51123;BME280;37162;41.724;13.346;2023-03-14T07:07:03;96328.88;;;17.22;63.91
51123;BME280;37162;41.724;13.346;2023-03-14T07:09:29;96317.00;;;17.18;63.86
51123;BME280;37162;41.724;13.346;2023-03-14T07:11:55;96324.31;;;17.23;63.95
51123;BME280;37162;41.724;13.346;2023-03-14T07:14:20;96334.81;;;17.24;63.88
51123;BME280;37162;41.724;13.346;2023-03-14T07:16:45;96333.75;;;17.25;63.91
51123;BME280;37162;41.724;13.346;2023-03-14T07:19:11;96325.94;;;17.24;63.75
51123;BME280;37162;41.724;13.346;2023-03-14T07:21:36;96343.41;;;17.26;63.74
51123;BME280;37162;41.724;13.346;2023-03-14T07:24:02;96327.22;;;17.21;63.57
51123;BME280;37162;41.724;13.346;2023-03-14T07:26:27;96337.25;;;17.26;63.78
51123;BME280;37162;41.724;13.346;2023-03-14T07:28:53;96339.94;;;17.26;63.73
51123;BME280;37162;41.724;13.346;2023-03-14T07:31:18;96339.94;;;17.26;63.53
51123;BME280;37162;41.724;13.346;2023-03-14T07:33:44;96346.94;;;17.27;63.76
51123;BME280;37162;41.724;13.346;2023-03-14T07:36:09;96342.38;;;17.27;63.42
51123;BME280;37162;41.724;13.346;2023-03-14T07:38:35;96349.38;;;17.28;63.59
51123;BME280;37162;41.724;13.346;2023-03-14T07:41:05;96357.97;;;17.30;63.38
51123;BME280;37162;41.724;13.346;2023-03-14T07:43:30;96332.13;;;17.24;63.46
51123;BME280;37162;41.724;13.346;2023-03-14T07:45:56;96330.31;;;17.30;63.51
51123;BME280;37162;41.724;13.346;2023-03-14T07:48:21;96339.78;;;17.32;63.31
51123;BME280;37162;41.724;13.346;2023-03-14T07:50:51;96330.19;;;17.36;63.32
51123;BME280;37162;41.724;13.346;2023-03-14T07:53:17;96316.00;;;17.41;63.55
51123;BME280;37162;41.724;13.346;2023-03-14T07:55:43;96318.44;;;17.43;63.12
51123;BME280;37162;41.724;13.346;2023-03-14T07:58:09;96311.19;;;17.43;62.58
51123;BME280;37162;41.724;13.346;2023-03-14T08:00:34;96308.25;;;17.45;62.31
51123;BME280;37162;41.724;13.346;2023-03-14T08:03:00;96291.59;;;17.43;61.79
51123;BME280;37162;41.724;13.346;2023-03-14T08:05:25;96278.16;;;17.43;61.02
51123;BME280;37162;41.724;13.346;2023-03-14T08:07:50;96281.91;;;17.42;61.60
51123;BME280;37162;41.724;13.346;2023-03-14T08:10:16;96287.84;;;17.44;61.60
51123;BME280;37162;41.724;13.346;2023-03-14T08:12:51;96275.78;;;17.46;61.19
51123;BME280;37162;41.724;13.346;2023-03-14T08:15:18;96283.34;;;17.49;61.42
51123;BME280;37162;41.724;13.346;2023-03-14T08:17:44;96282.84;;;17.52;61.61
51123;BME280;37162;41.724;13.346;2023-03-14T08:20:10;96275.13;;;17.56;61.57
51123;BME280;37162;41.724;13.346;2023-03-14T08:22:37;96274.59;;;17.59;61.42
51123;BME280;37162;41.724;13.346;2023-03-14T08:25:03;96281.91;;;17.63;61.62
51123;BME280;37162;41.724;13.346;2023-03-14T08:27:28;96267.19;;;17.66;61.34
51123;BME280;37162;41.724;13.346;2023-03-14T08:29:54;96268.00;;;17.67;60.95
51123;BME280;37162;41.724;13.346;2023-03-14T08:32:19;96262.38;;;17.68;61.07
51123;BME280;37162;41.724;13.346;2023-03-14T08:34:45;96257.31;;;17.72;61.36
51123;BME280;37162;41.724;13.346;2023-03-14T08:37:11;96254.16;;;17.75;61.36
51123;BME280;37162;41.724;13.346;2023-03-14T08:39:36;96241.28;;;17.77;61.38
51123;BME280;37162;41.724;13.346;2023-03-14T08:42:02;96232.72;;;17.80;61.69
51123;BME280;37162;41.724;13.346;2023-03-14T08:44:28;96219.84;;;17.82;61.62
51123;BME280;37162;41.724;13.346;2023-03-14T08:46:53;96202.09;;;17.81;61.67
51123;BME280;37162;41.724;13.346;2023-03-14T08:49:19;96197.00;;;17.79;61.59
51123;BME280;37162;41.724;13.346;2023-03-14T08:51:44;96211.03;;;17.86;61.83
51123;BME280;37162;41.724;13.346;2023-03-14T08:54:10;96210.84;;;17.93;61.73
51123;BME280;37162;41.724;13.346;2023-03-14T08:56:36;96211.41;;;17.95;61.78
51123;BME280;37162;41.724;13.346;2023-03-14T08:59:03;96205.53;;;17.98;61.81
51123;BME280;37162;41.724;13.346;2023-03-14T09:01:28;96200.97;;;17.99;61.41
51123;BME280;37162;41.724;13.346;2023-03-14T09:03:54;96204.19;;;18.01;61.54
51123;BME280;37162;41.724;13.346;2023-03-14T09:06:19;96187.53;;;17.99;61.29
51123;BME280;37162;41.724;13.346;2023-03-14T09:08:45;96173.56;;;18.02;59.73
51123;BME280;37162;41.724;13.346;2023-03-14T09:11:11;96174.94;;;18.04;59.83
51123;BME280;37162;41.724;13.346;2023-03-14T09:13:37;96170.09;;;18.06;60.65
51123;BME280;37162;41.724;13.346;2023-03-14T09:16:03;96160.72;;;18.09;60.61
51123;BME280;37162;41.724;13.346;2023-03-14T09:18:28;96151.06;;;18.08;60.86
51123;BME280;37162;41.724;13.346;2023-03-14T09:20:55;96148.41;;;18.13;61.08
51123;BME280;37162;41.724;13.346;2023-03-14T09:23:21;96144.34;;;18.10;60.94
51123;BME280;37162;41.724;13.346;2023-03-14T09:25:46;96155.72;;;18.18;61.15
51123;BME280;37162;41.724;13.346;2023-03-14T09:28:12;96159.22;;;18.18;61.10
51123;BME280;37162;41.724;13.346;2023-03-14T09:30:38;96139.31;;;18.19;61.33
51123;BME280;37162;41.724;13.346;2023-03-14T09:33:03;96144.19;;;18.22;61.25
51123;BME280;37162;41.724;13.346;2023-03-14T09:35:29;96136.13;;;18.22;61.27
51123;BME280;37162;41.724;13.346;2023-03-14T09:37:54;96141.50;;;18.22;61.29
51123;BME280;37162;41.724;13.346;2023-03-14T09:40:21;96149.56;;;18.22;61.39
51123;BME280;37162;41.724;13.346;2023-03-14T09:42:51;96121.34;;;18.25;61.51
51123;BME280;37162;41.724;13.346;2023-03-14T09:47:49;96131.84;;;18.26;61.10
51123;BME280;37162;41.724;13.346;2023-03-14T09:50:15;96116.28;;;18.28;61.32
51123;BME280;37162;41.724;13.346;2023-03-14T09:52:45;96114.38;;;18.29;61.23
51123;BME280;37162;41.724;13.346;2023-03-14T09:55:16;96117.88;;;18.29;61.23
51123;BME280;37162;41.724;13.346;2023-03-14T09:57:44;96117.06;;;18.29;61.27
51123;BME280;37162;41.724;13.346;2023-03-14T10:00:22;96123.84;;;18.31;61.27
51123;BME280;37162;41.724;13.346;2023-03-14T10:05:52;96103.09;;;18.27;61.15
51123;BME280;37162;41.724;13.346;2023-03-14T10:08:18;96115.16;;;18.24;60.99
51123;BME280;37162;41.724;13.346;2023-03-14T10:10:44;96098.69;;;18.16;61.08
51123;BME280;37162;41.724;13.346;2023-03-14T10:13:17;96100.31;;;18.17;60.89
51123;BME280;37162;41.724;13.346;2023-03-14T10:18:23;96098.91;;;18.09;60.55
51123;BME280;37162;41.724;13.346;2023-03-14T10:21:07;96102.09;;;18.06;60.60
51123;BME280;37162;41.724;13.346;2023-03-14T10:23:34;96078.44;;;18.03;60.53
51123;BME280;37162;41.724;13.346;2023-03-14T10:26:08;96069.81;;;18.01;60.77
51123;BME280;37162;41.724;13.346;2023-03-14T10:28:43;96070.59;;;18.01;60.85
51123;BME280;37162;41.724;13.346;2023-03-14T10:31:09;96058.81;;;18.02;60.90
51123;BME280;37162;41.724;13.346;2023-03-14T10:33:36;96064.72;;;18.04;61.26
51123;BME280;37162;41.724;13.346;2023-03-14T10:36:15;96046.72;;;18.05;61.57
51123;BME280;37162;41.724;13.346;2023-03-14T10:38:42;96046.72;;;18.05;61.33
51123;BME280;37162;41.724;13.346;2023-03-14T10:41:34;96029.75;;;17.99;61.16
51123;BME280;37162;41.724;13.346;2023-03-14T10:44:01;96032.72;;;17.98;61.38
51123;BME280;37162;41.724;13.346;2023-03-14T10:46:30;96029.75;;;17.99;61.26
51123;BME280;37162;41.724;13.346;2023-03-14T10:48:56;96029.19;;;17.97;61.30
51123;BME280;37162;41.724;13.346;2023-03-14T10:51:27;96029.44;;;17.96;60.89
51123;BME280;37162;41.724;13.346;2023-03-14T10:56:26;96038.28;;;17.91;60.65
51123;BME280;37162;41.724;13.346;2023-03-14T10:59:03;96035.06;;;17.89;60.30
51123;BME280;37162;41.724;13.346;2023-03-14T11:01:51;96035.28;;;17.87;60.29
51123;BME280;37162;41.724;13.346;2023-03-14T11:07:36;96018.94;;;17.89;60.53
51123;BME280;37162;41.724;13.346;2023-03-14T11:10:39;96025.31;;;17.83;60.83
51123;BME280;37162;41.724;13.346;2023-03-14T11:13:26;96030.19;;;17.86;60.79
51123;BME280;37162;41.724;13.346;2023-03-14T11:16:14;96021.00;;;17.82;60.12
51123;BME280;37162;41.724;13.346;2023-03-14T11:27:03;96010.97;;;17.72;61.38
51123;BME280;37162;41.724;13.346;2023-03-14T11:34:54;95994.22;;;17.60;62.20
51123;BME280;37162;41.724;13.346;2023-03-14T11:37:32;95992.34;;;17.60;62.19
51123;BME280;37162;41.724;13.346;2023-03-14T11:42:42;95979.69;;;17.56;62.49
51123;BME280;37162;41.724;13.346;2023-03-14T11:45:21;95967.81;;;17.52;62.64
51123;BME280;37162;41.724;13.346;2023-03-14T11:48:17;95969.69;;;17.51;62.61
51123;BME280;37162;41.724;13.346;2023-03-14T11:50:48;95957.56;;;17.49;62.83
51123;BME280;37162;41.724;13.346;2023-03-14T11:53:40;95955.16;;;17.47;62.87
51123;BME280;37162;41.724;13.346;2023-03-14T11:56:23;95951.91;;;17.45;62.99
51123;BME280;37162;41.724;13.346;2023-03-14T11:58:57;95943.31;;;17.43;62.96
51123;BME280;37162;41.724;13.346;2023-03-14T12:01:30;95931.19;;;17.41;62.95
51123;BME280;37162;41.724;13.346;2023-03-14T12:04:11;95926.34;;;17.37;61.97
51123;BME280;37162;41.724;13.346;2023-03-14T12:06:47;95908.81;;;17.30;60.98
51123;BME280;37162;41.724;13.346;2023-03-14T12:09:15;95901.56;;;17.30;61.28
51123;BME280;37162;41.724;13.346;2023-03-14T12:11:53;95897.00;;;17.31;61.78
51123;BME280;37162;41.724;13.346;2023-03-14T12:17:39;95898.09;;;17.30;61.82
51123;BME280;37162;41.724;13.346;2023-03-14T12:19:40;95876.25;;;17.21;61.57
51123;BME280;37162;41.724;13.346;2023-03-14T12:22:22;95883.53;;;17.26;61.47
51123;BME280;37162;41.724;13.346;2023-03-14T12:24:49;95874.69;;;17.25;61.59
51123;BME280;37162;41.724;13.346;2023-03-14T12:30:40;95856.16;;;17.24;62.20
51123;BME280;37162;41.724;13.346;2023-03-14T12:35:47;95843.81;;;17.23;62.51
51123;BME280;37162;41.724;13.346;2023-03-14T12:43:29;95834.13;;;17.22;62.78
51123;BME280;37162;41.724;13.346;2023-03-14T12:48:44;95811.03;;;17.21;62.79
51123;BME280;37162;41.724;13.346;2023-03-14T12:51:15;95803.25;;;17.19;62.83
51123;BME280;37162;41.724;13.346;2023-03-14T12:59:28;95769.44;;;17.18;63.25
51123;BME280;37162;41.724;13.346;2023-03-14T13:01:59;95776.41;;;17.19;63.34
51123;BME280;37162;41.724;13.346;2023-03-14T13:04:34;95770.25;;;17.19;63.59
51123;BME280;37162;41.724;13.346;2023-03-14T13:07:03;95769.44;;;17.18;63.43
51123;BME280;37162;41.724;13.346;2023-03-14T13:12:10;95768.88;;;17.16;63.92
51123;BME280;37162;41.724;13.346;2023-03-14T13:14:41;95771.53;;;17.16;63.86
51123;BME280;37162;41.724;13.346;2023-03-14T13:17:14;95768.06;;;17.16;63.81
51123;BME280;37162;41.724;13.346;2023-03-14T13:19:41;95758.09;;;17.11;63.80
51123;BME280;37162;41.724;13.346;2023-03-14T13:22:28;95759.19;;;17.15;63.74
51123;BME280;37162;41.724;13.346;2023-03-14T13:25:04;95753.53;;;17.11;62.91
51123;BME280;37162;41.724;13.346;2023-03-14T13:27:32;95733.91;;;17.06;63.24
51123;BME280;37162;41.724;13.346;2023-03-14T13:29:59;95738.25;;;17.12;63.00
51123;BME280;37162;41.724;13.346;2023-03-14T13:32:29;95735.00;;;17.10;62.92
51123;BME280;37162;41.724;13.346;2023-03-14T13:34:56;95724.78;;;17.07;63.12
51123;BME280;37162;41.724;13.346;2023-03-14T13:37:25;95732.34;;;17.10;62.92
51123;BME280;37162;41.724;13.346;2023-03-14T13:39:56;95726.97;;;17.10;62.87
51123;BME280;37162;41.724;13.346;2023-03-14T13:42:26;95702.22;;;17.03;63.03
51123;BME280;37162;41.724;13.346;2023-03-14T13:44:53;95710.06;;;17.09;63.07
51123;BME280;37162;41.724;13.346;2023-03-14T13:47:23;95719.72;;;17.10;63.17
51123;BME280;37162;41.724;13.346;2023-03-14T13:49:49;95714.34;;;17.10;63.10
51123;BME280;37162;41.724;13.346;2023-03-14T13:52:30;95715.97;;;17.11;63.21
51123;BME280;37162;41.724;13.346;2023-03-14T13:54:57;95708.44;;;17.08;63.35
51123;BME280;37162;41.724;13.346;2023-03-14T13:57:23;95706.56;;;17.09;63.27
51123;BME280;37162;41.724;13.346;2023-03-14T14:00:05;95702.81;;;17.10;63.36
51123;BME280;37162;41.724;13.346;2023-03-14T14:02:36;95684.00;;;17.05;63.28
51123;BME280;37162;41.724;13.346;2023-03-14T14:05:03;95684.84;;;17.10;63.45
51123;BME280;37162;41.724;13.346;2023-03-14T14:07:29;95668.69;;;17.00;63.57
51123;BME280;37162;41.724;13.346;2023-03-14T14:09:55;95672.16;;;17.01;63.41